createdAt,value
2022-11-12T00:00:59.510Z,5.85
2022-11-12T00:03:27.074Z,7.40
2022-11-12T00:05:54.159Z,10.32
2022-11-12T00:08:21.671Z,4.55
2022-11-12T00:10:49.060Z,4.20
2022-11-12T00:13:16.165Z,5.03
2022-11-12T00:15:43.116Z,7.72
2022-11-12T00:18:10.098Z,8.18
2022-11-12T00:20:37.023Z,5.35
2022-11-12T00:23:03.972Z,11.00
2022-11-12T00:25:30.993Z,10.10
2022-11-12T00:28:03.274Z,11.15
2022-11-12T00:30:30.209Z,6.93
2022-11-12T00:32:57.421Z,8.88
2022-11-12T00:35:24.300Z,10.85
2022-11-12T00:37:55.390Z,9.65
2022-11-12T00:40:22.283Z,10.20
2022-11-12T00:42:52.267Z,12.05
2022-11-12T00:45:20.656Z,10.90
2022-11-12T00:47:48.032Z,11.23
2022-11-12T00:50:16.283Z,11.93
2022-11-12T00:52:43.703Z,12.38
2022-11-12T00:55:10.853Z,14.35
2022-11-12T00:57:37.914Z,12.00
2022-11-12T01:00:06.843Z,9.90
2022-11-12T01:02:40.698Z,12.48
2022-11-12T01:05:10.541Z,12.35
2022-11-12T01:07:37.474Z,12.70
2022-11-12T01:10:04.834Z,19.88
2022-11-12T01:12:32.733Z,10.82
2022-11-12T01:15:00.271Z,9.20
2022-11-12T01:17:27.368Z,14.77
2022-11-12T01:19:54.233Z,12.85
2022-11-12T01:22:21.092Z,10.52
2022-11-12T01:24:47.988Z,12.32
2022-11-12T01:27:15.043Z,14.40
2022-11-12T01:29:41.995Z,16.63
2022-11-12T01:32:08.950Z,17.45
2022-11-12T01:34:36.060Z,15.23
2022-11-12T01:37:02.915Z,14.60
2022-11-12T01:39:29.731Z,12.93
2022-11-12T01:41:56.611Z,13.65
2022-11-12T01:44:29.307Z,13.20
2022-11-12T01:47:20.901Z,16.45
2022-11-12T01:49:57.116Z,12.73
2022-11-12T01:52:31.932Z,13.70
2022-11-12T01:55:05.534Z,12.30
2022-11-12T01:57:37.226Z,15.05
2022-11-12T02:00:08.924Z,21.10
2022-11-12T02:02:37.102Z,13.18
2022-11-12T02:05:07.604Z,7.82
2022-11-12T02:07:36.706Z,18.20
2022-11-12T02:10:04.522Z,12.88
2022-11-12T02:12:50.085Z,9.50
2022-11-12T02:15:17.101Z,16.77
2022-11-12T02:17:51.077Z,13.73
2022-11-12T02:20:18.975Z,12.10
2022-11-12T02:22:45.987Z,12.07
2022-11-12T02:25:18.138Z,17.80
2022-11-12T02:27:46.052Z,16.73
2022-11-12T02:30:13.032Z,15.38
2022-11-12T02:32:39.978Z,14.02
2022-11-12T02:35:07.339Z,14.60
2022-11-12T02:37:34.251Z,11.60
2022-11-12T02:40:01.087Z,15.48
2022-11-12T02:42:28.049Z,12.85
2022-11-12T02:44:55.067Z,11.25
2022-11-12T02:47:21.883Z,5.20
2022-11-12T02:49:48.925Z,11.25
2022-11-12T02:52:15.782Z,16.35
2022-11-12T02:54:42.695Z,20.30
2022-11-12T02:57:11.321Z,14.80
2022-11-12T02:59:38.191Z,11.90
2022-11-12T03:02:05.026Z,12.75
2022-11-12T03:04:31.948Z,14.27
2022-11-12T03:06:58.829Z,9.05
2022-11-12T03:09:25.795Z,11.75
2022-11-12T03:11:52.701Z,13.68
2022-11-12T03:14:19.641Z,11.50
2022-11-12T03:16:46.657Z,16.05
2022-11-12T03:19:13.530Z,15.30
2022-11-12T03:21:40.482Z,15.32
2022-11-12T03:24:07.500Z,14.05
2022-11-12T03:26:35.959Z,10.90
2022-11-12T03:29:04.114Z,12.05
2022-11-12T03:31:31.088Z,20.10
2022-11-12T03:33:58.027Z,15.60
2022-11-12T03:36:24.914Z,15.23
2022-11-12T03:38:51.778Z,12.80
2022-11-12T03:41:18.681Z,15.98
2022-11-12T03:43:45.514Z,11.20
2022-11-12T03:46:12.389Z,15.85
2022-11-12T03:48:39.434Z,11.27
2022-11-12T03:51:06.618Z,16.63
2022-11-12T03:53:33.487Z,8.82
2022-11-12T03:56:00.436Z,11.57
2022-11-12T03:58:27.535Z,13.07
2022-11-12T04:00:54.982Z,12.80
2022-11-12T04:03:21.971Z,9.20
2022-11-12T04:06:07.831Z,11.05
2022-11-12T04:08:37.428Z,13.13
2022-11-12T04:11:15.928Z,8.75
2022-11-12T04:13:45.678Z,9.45
2022-11-12T04:16:33.813Z,16.30
2022-11-12T04:19:20.568Z,13.77
2022-11-12T04:24:41.242Z,12.85
2022-11-12T04:27:19.655Z,12.63
2022-11-12T04:30:06.295Z,10.73
2022-11-12T04:32:35.676Z,11.30
2022-11-12T04:35:03.588Z,9.55
2022-11-12T04:37:45.032Z,11.15
2022-11-12T04:40:34.538Z,9.65
2022-11-12T04:43:20.682Z,10.23
2022-11-12T04:45:50.706Z,13.65
2022-11-12T04:48:17.779Z,13.95
2022-11-12T04:50:47.277Z,10.52
2022-11-12T04:53:14.294Z,12.68
2022-11-12T04:55:41.407Z,10.15
2022-11-12T04:58:09.039Z,10.00
2022-11-12T05:00:36.070Z,9.60
2022-11-12T05:03:03.123Z,9.63
2022-11-12T05:05:33.901Z,15.43
2022-11-12T05:08:02.683Z,13.07
2022-11-12T05:10:30.581Z,13.48
2022-11-12T05:12:57.754Z,13.32
2022-11-12T05:15:24.793Z,12.13
2022-11-12T05:17:51.789Z,11.70
2022-11-12T05:20:19.009Z,16.80
2022-11-12T05:23:04.485Z,9.50
2022-11-12T05:25:32.355Z,6.93
2022-11-12T05:27:59.384Z,15.20
2022-11-12T05:30:27.024Z,11.05
2022-11-12T05:32:53.993Z,6.55
2022-11-12T05:35:20.984Z,9.82
2022-11-12T05:37:47.918Z,12.38
2022-11-12T05:40:14.930Z,13.57
2022-11-12T05:42:41.893Z,9.73
2022-11-12T05:45:09.252Z,12.50
2022-11-12T05:47:36.094Z,15.02
2022-11-12T05:50:03.164Z,12.60
2022-11-12T05:52:30.004Z,14.65
2022-11-12T05:54:56.808Z,13.93
2022-11-12T05:57:23.807Z,8.77
2022-11-12T05:59:50.669Z,11.27
2022-11-12T06:02:17.693Z,11.77
2022-11-12T06:04:44.765Z,12.18
2022-11-12T06:07:11.675Z,10.45
2022-11-12T06:09:38.635Z,11.57
2022-11-12T06:12:07.249Z,11.15
2022-11-12T06:14:34.391Z,8.63
2022-11-12T06:17:01.171Z,12.70
2022-11-12T06:19:28.202Z,13.60
2022-11-12T06:21:55.127Z,10.52
2022-11-12T06:24:22.325Z,11.93
2022-11-12T06:26:49.305Z,12.77
2022-11-12T06:29:16.147Z,8.15
2022-11-12T06:31:43.021Z,10.20
2022-11-12T06:34:10.374Z,5.93
2022-11-12T06:36:37.219Z,8.80
2022-11-12T06:39:04.675Z,10.18
2022-11-12T06:41:31.629Z,7.63
2022-11-12T06:43:58.612Z,6.43
2022-11-12T06:46:25.456Z,14.27
2022-11-12T06:48:53.372Z,8.30
2022-11-12T06:51:21.718Z,11.45
2022-11-12T06:53:49.610Z,10.63
2022-11-12T06:56:16.856Z,7.60
2022-11-12T06:58:43.880Z,8.55
2022-11-12T07:01:13.625Z,13.18
2022-11-12T07:03:42.236Z,14.57
2022-11-12T07:06:12.532Z,10.50
2022-11-12T07:08:39.934Z,9.45
2022-11-12T07:11:07.447Z,9.75
2022-11-12T07:13:35.670Z,8.52
2022-11-12T07:16:04.080Z,8.88
2022-11-12T07:18:31.793Z,11.20
2022-11-12T07:21:05.009Z,8.95
2022-11-12T07:23:33.394Z,9.32
2022-11-12T07:26:20.911Z,11.23
2022-11-12T07:28:49.024Z,9.57
2022-11-12T07:31:17.866Z,9.90
2022-11-12T07:33:45.420Z,8.10
2022-11-12T07:36:14.986Z,10.18
2022-11-12T07:38:43.339Z,8.82
2022-11-12T07:41:18.838Z,8.85
2022-11-12T07:43:47.676Z,8.02
2022-11-12T07:46:17.898Z,7.00
2022-11-12T07:48:46.293Z,7.00
2022-11-12T07:51:21.614Z,8.88
2022-11-12T07:53:53.729Z,8.73
2022-11-12T07:58:53.093Z,7.90
2022-11-12T08:01:36.280Z,9.95
2022-11-12T08:04:06.163Z,9.65
2022-11-12T08:06:34.378Z,7.97
2022-11-12T08:09:04.770Z,9.13
2022-11-12T08:11:32.739Z,8.25
2022-11-12T08:14:00.060Z,11.57
2022-11-12T08:16:27.324Z,8.73
2022-11-12T08:18:54.310Z,11.70
2022-11-12T08:21:21.363Z,12.73
2022-11-12T08:23:48.417Z,9.38
2022-11-12T08:26:19.089Z,10.57
2022-11-12T08:28:46.454Z,6.22
2022-11-12T08:31:19.451Z,12.88
2022-11-12T08:33:46.582Z,10.50
2022-11-12T08:36:15.481Z,9.18
2022-11-12T08:38:43.145Z,7.75
2022-11-12T08:41:12.895Z,7.20
2022-11-12T08:43:42.291Z,10.52
2022-11-12T08:46:09.781Z,11.52
2022-11-12T08:48:36.883Z,7.85
2022-11-12T08:51:08.427Z,8.40
2022-11-12T08:53:35.507Z,6.65
2022-11-12T08:56:02.622Z,8.40
2022-11-12T08:58:30.082Z,12.18
2022-11-12T09:00:58.195Z,11.18
2022-11-12T09:03:26.650Z,11.85
2022-11-12T09:05:54.106Z,7.60
2022-11-12T09:08:23.874Z,13.20
2022-11-12T09:10:51.901Z,10.63
2022-11-12T09:13:19.304Z,10.40
2022-11-12T09:15:46.971Z,13.32
2022-11-12T09:18:18.702Z,11.98
2022-11-12T09:20:46.359Z,6.75
2022-11-12T09:23:18.009Z,9.82
2022-11-12T09:25:45.568Z,11.10
2022-11-12T09:28:14.890Z,10.23
2022-11-12T09:30:47.272Z,5.45
2022-11-12T09:33:15.624Z,12.52
2022-11-12T09:35:43.079Z,9.93
2022-11-12T09:38:10.064Z,13.05
2022-11-12T09:40:52.579Z,10.23
2022-11-12T09:43:27.975Z,11.20
2022-11-12T09:46:26.112Z,12.40
2022-11-12T09:48:53.501Z,10.45
2022-11-12T09:51:30.886Z,16.63
2022-11-12T09:54:02.507Z,16.65
2022-11-12T09:56:30.408Z,14.15
2022-11-12T09:58:57.635Z,10.52
2022-11-12T10:01:39.128Z,9.00
2022-11-12T10:04:33.992Z,9.88
2022-11-12T10:07:15.082Z,11.57
2022-11-12T10:10:02.038Z,9.07
2022-11-12T10:12:50.542Z,8.90
2022-11-12T10:15:39.206Z,7.25
2022-11-12T10:18:24.844Z,10.38
2022-11-12T10:21:21.453Z,8.00
2022-11-12T10:23:52.414Z,6.17
2022-11-12T10:26:22.332Z,10.25
2022-11-12T10:29:17.250Z,9.73
2022-11-12T10:31:44.376Z,9.63
2022-11-12T10:34:14.826Z,7.55
2022-11-12T10:37:00.331Z,6.03
2022-11-12T10:39:38.925Z,6.57
2022-11-12T10:42:12.658Z,7.18
2022-11-12T10:44:40.787Z,13.13
2022-11-12T10:47:25.382Z,5.38
2022-11-12T10:50:15.432Z,12.02
2022-11-12T10:52:54.595Z,10.15
2022-11-12T10:55:29.073Z,7.22
2022-11-12T10:58:11.394Z,7.50
2022-11-12T11:00:56.562Z,9.15
2022-11-12T11:03:57.202Z,8.88
2022-11-12T11:06:26.884Z,9.88
2022-11-12T11:09:08.170Z,9.85
2022-11-12T11:11:36.137Z,7.22
2022-11-12T11:14:24.806Z,8.02
2022-11-12T11:16:54.322Z,10.15
2022-11-12T11:19:21.607Z,6.28
2022-11-12T11:21:48.741Z,8.75
2022-11-12T11:24:40.362Z,8.63
2022-11-12T11:27:27.048Z,12.38
2022-11-12T11:30:18.312Z,10.27
2022-11-12T11:33:01.417Z,6.05
2022-11-12T11:35:55.308Z,7.70
2022-11-12T11:38:50.320Z,13.57
2022-11-12T11:41:35.926Z,7.50
2022-11-12T11:44:49.699Z,6.82
2022-11-12T11:47:59.532Z,9.82
2022-11-12T11:53:30.143Z,9.98
2022-11-12T11:58:36.896Z,7.97
2022-11-12T12:01:21.124Z,9.57
2022-11-12T12:03:47.984Z,7.40
2022-11-12T12:06:28.207Z,9.02
2022-11-12T12:09:17.303Z,5.05
2022-11-12T12:12:04.403Z,8.98
2022-11-12T12:14:51.783Z,10.90
2022-11-12T12:17:49.166Z,10.13
2022-11-12T12:20:30.651Z,8.75
2022-11-12T12:23:04.469Z,6.13
2022-11-12T12:25:37.245Z,10.27
2022-11-12T12:28:39.900Z,8.07
2022-11-12T12:31:21.700Z,6.00
2022-11-12T12:34:02.976Z,10.48
2022-11-12T12:36:40.150Z,8.82
2022-11-12T12:39:15.248Z,10.48
2022-11-12T12:41:51.191Z,5.07
2022-11-12T12:44:18.324Z,8.43
2022-11-12T12:46:59.215Z,7.75
2022-11-12T12:49:38.386Z,8.82
2022-11-12T12:52:05.771Z,6.45
2022-11-12T12:54:35.996Z,8.05
2022-11-12T12:57:29.247Z,11.98
2022-11-12T13:00:30.090Z,9.40
2022-11-12T13:02:57.253Z,9.45
2022-11-12T13:05:34.765Z,8.52
2022-11-12T13:08:25.208Z,10.00
2022-11-12T13:10:53.025Z,7.38
2022-11-12T13:13:20.194Z,8.93
2022-11-12T13:15:49.389Z,7.93
2022-11-12T13:18:38.038Z,7.25
2022-11-12T13:21:22.154Z,11.18
2022-11-12T13:24:10.821Z,8.32
2022-11-12T13:26:53.153Z,15.85
2022-11-12T13:29:27.322Z,11.82
2022-11-12T13:32:30.322Z,13.45
2022-11-12T13:35:23.946Z,12.25
2022-11-12T13:38:16.059Z,13.15
2022-11-12T13:40:47.027Z,12.23
2022-11-12T13:43:32.665Z,10.30
2022-11-12T13:46:08.962Z,12.00
2022-11-12T13:51:43.295Z,13.23
2022-11-12T13:54:29.190Z,9.73
2022-11-12T13:56:56.790Z,10.93
2022-11-12T13:59:26.263Z,10.27
2022-11-12T14:01:54.146Z,12.88
2022-11-12T14:04:24.778Z,10.90
2022-11-12T14:07:23.294Z,12.95
2022-11-12T14:10:15.574Z,12.07
2022-11-12T14:13:17.170Z,10.80
2022-11-12T14:16:19.565Z,11.98
2022-11-12T14:19:23.941Z,10.93
2022-11-12T14:22:17.748Z,12.63
2022-11-12T14:24:48.250Z,16.83
2022-11-12T14:27:31.424Z,17.25
2022-11-12T14:30:25.889Z,19.98
2022-11-12T14:32:57.980Z,17.00
2022-11-12T14:35:36.993Z,18.55
2022-11-12T14:38:09.015Z,16.50
2022-11-12T14:40:38.870Z,18.17
2022-11-12T14:43:06.789Z,24.30
2022-11-12T14:45:35.527Z,23.73
2022-11-12T14:48:02.745Z,24.10
2022-11-12T14:50:37.383Z,22.50
2022-11-12T14:53:19.248Z,19.48
2022-11-12T14:55:52.858Z,21.52
2022-11-12T14:58:22.065Z,18.83
2022-11-12T15:00:54.226Z,20.42
2022-11-12T15:03:25.724Z,17.90
2022-11-12T15:06:21.412Z,20.83
2022-11-12T15:08:58.317Z,18.38
2022-11-12T15:11:31.433Z,12.85
2022-11-12T15:14:02.180Z,16.27
2022-11-12T15:16:33.436Z,15.45
2022-11-12T15:19:15.607Z,20.25
2022-11-12T15:21:58.514Z,17.77
2022-11-12T15:24:39.151Z,9.90
2022-11-12T15:27:38.557Z,15.73
2022-11-12T15:30:22.458Z,14.70
2022-11-12T15:32:51.123Z,19.80
2022-11-12T15:35:27.077Z,19.40
2022-11-12T15:37:54.490Z,17.70
2022-11-12T15:40:23.241Z,21.05
2022-11-12T15:42:50.731Z,17.83
2022-11-12T15:45:20.940Z,16.15
2022-11-12T15:47:48.129Z,16.33
2022-11-12T15:50:18.248Z,14.48
2022-11-12T15:52:46.153Z,19.75
2022-11-12T15:55:14.418Z,18.48
2022-11-12T15:57:48.290Z,16.60
2022-11-12T16:00:24.019Z,19.35
2022-11-12T16:03:00.378Z,20.20
2022-11-12T16:07:54.438Z,15.85
2022-11-12T16:10:22.067Z,26.60
2022-11-12T16:12:51.386Z,17.58
2022-11-12T16:15:22.657Z,19.63
2022-11-12T16:17:50.077Z,22.63
2022-11-12T16:20:21.941Z,17.40
2022-11-12T16:22:50.465Z,19.55
2022-11-12T16:25:19.347Z,24.05
2022-11-12T16:27:51.454Z,21.08
2022-11-12T16:30:28.020Z,11.73
2022-11-12T16:32:57.233Z,17.73
2022-11-12T16:35:25.315Z,15.30
2022-11-12T16:37:55.061Z,18.40
2022-11-12T16:40:25.079Z,15.35
2022-11-12T16:42:52.695Z,19.75
2022-11-12T16:45:21.804Z,21.15
2022-11-12T16:47:51.701Z,14.13
2022-11-12T16:50:22.233Z,18.58
2022-11-12T16:52:50.326Z,14.45
2022-11-12T16:55:18.661Z,15.68
2022-11-12T16:57:46.399Z,20.38
2022-11-12T17:00:16.821Z,20.25
2022-11-12T17:02:49.348Z,12.77
2022-11-12T17:05:26.437Z,18.10
2022-11-12T17:07:59.995Z,18.33
2022-11-12T17:10:27.355Z,20.30
2022-11-12T17:12:56.921Z,20.75
2022-11-12T17:15:24.141Z,20.63
2022-11-12T17:17:54.356Z,16.60
2022-11-12T17:20:21.494Z,23.83
2022-11-12T17:22:49.081Z,18.08
2022-11-12T17:25:16.590Z,21.80
2022-11-12T17:27:46.463Z,16.08
2022-11-12T17:30:13.832Z,17.70
2022-11-12T17:32:41.545Z,16.88
2022-11-12T17:35:08.860Z,24.95
2022-11-12T17:37:36.360Z,14.15
2022-11-12T17:40:04.538Z,22.10
2022-11-12T17:42:31.858Z,17.85
2022-11-12T17:44:58.869Z,20.52
2022-11-12T17:47:25.712Z,19.67
2022-11-12T17:49:53.035Z,20.67
2022-11-12T17:52:20.007Z,17.90
2022-11-12T17:54:47.223Z,16.77
2022-11-12T17:57:14.527Z,20.73
2022-11-12T17:59:41.921Z,20.55
2022-11-12T18:02:12.242Z,22.17
2022-11-12T18:04:40.777Z,20.55
2022-11-12T18:07:07.695Z,22.60
2022-11-12T18:09:34.836Z,24.80
2022-11-12T18:12:01.762Z,23.20
2022-11-12T18:14:28.736Z,24.27
2022-11-12T18:16:59.079Z,19.02
2022-11-12T18:19:26.849Z,18.33
2022-11-12T18:21:57.071Z,15.18
2022-11-12T18:24:24.446Z,16.25
2022-11-12T18:26:51.539Z,18.10
2022-11-12T18:29:18.678Z,21.02
2022-11-12T18:31:47.425Z,21.33
2022-11-12T18:34:15.514Z,21.08
2022-11-12T18:36:42.534Z,23.92
2022-11-12T18:39:10.075Z,17.90
2022-11-12T18:41:37.220Z,19.95
2022-11-12T18:44:04.632Z,17.48
2022-11-12T18:46:31.640Z,26.05
2022-11-12T18:48:58.756Z,22.83
2022-11-12T18:51:26.367Z,23.05
2022-11-12T18:53:53.403Z,18.10
2022-11-12T18:56:22.191Z,18.77
2022-11-12T18:58:49.623Z,20.98
2022-11-12T19:01:21.949Z,19.95
2022-11-12T19:03:53.533Z,18.00
2022-11-12T19:06:21.359Z,18.75
2022-11-12T19:08:48.748Z,20.35
2022-11-12T19:11:19.096Z,28.60
2022-11-12T19:13:50.221Z,25.63
2022-11-12T19:16:20.451Z,20.63
2022-11-12T19:18:48.341Z,25.98
2022-11-12T19:21:24.670Z,24.33
2022-11-12T19:26:24.796Z,22.60
2022-11-12T19:28:53.105Z,25.52
2022-11-12T19:31:22.917Z,22.02
2022-11-12T19:33:50.688Z,26.23
2022-11-12T19:36:21.113Z,21.05
2022-11-12T19:38:53.479Z,21.35
2022-11-12T19:41:20.722Z,24.58
2022-11-12T19:43:47.938Z,19.38
2022-11-12T19:46:15.255Z,24.80
2022-11-12T19:48:43.041Z,25.15
2022-11-12T19:51:11.511Z,26.35
2022-11-12T19:53:46.416Z,19.40
2022-11-12T19:56:21.452Z,34.67
2022-11-12T19:58:49.647Z,27.05
2022-11-12T20:01:19.503Z,23.85
2022-11-12T20:03:47.315Z,27.70
2022-11-12T20:06:17.909Z,21.85
2022-11-12T20:08:45.479Z,29.25
2022-11-12T20:11:12.884Z,28.17
2022-11-12T20:13:40.468Z,30.08
2022-11-12T20:16:08.965Z,21.42
2022-11-12T20:18:36.774Z,25.88
2022-11-12T20:21:05.095Z,31.85
2022-11-12T20:23:34.372Z,27.90
2022-11-12T20:26:06.698Z,25.70
2022-11-12T20:28:35.489Z,21.95
2022-11-12T20:31:12.450Z,23.60
2022-11-12T20:33:42.668Z,20.77
2022-11-12T20:36:11.437Z,23.70
2022-11-12T20:38:39.889Z,22.27
2022-11-12T20:41:11.199Z,17.05
2022-11-12T20:43:38.203Z,26.80
2022-11-12T20:46:05.245Z,27.88
2022-11-12T20:48:32.237Z,18.73
2022-11-12T20:51:23.830Z,34.00
2022-11-12T20:53:58.952Z,26.63
2022-11-12T20:56:28.775Z,21.75
2022-11-12T20:58:56.125Z,29.00
2022-11-12T21:01:25.080Z,27.98
2022-11-12T21:03:52.459Z,25.48
2022-11-12T21:06:22.456Z,29.73
2022-11-12T21:08:50.163Z,16.98
2022-11-12T21:11:19.343Z,24.50
2022-11-12T21:13:46.640Z,22.63
2022-11-12T21:16:14.622Z,27.08
2022-11-12T21:18:42.320Z,21.92
2022-11-12T21:21:15.148Z,30.02
2022-11-12T21:23:44.293Z,29.95
2022-11-12T21:26:20.004Z,30.38
2022-11-12T21:28:50.056Z,27.58
2022-11-12T21:31:21.251Z,30.67
2022-11-12T21:33:52.852Z,27.40
2022-11-12T21:36:20.928Z,28.95
2022-11-12T21:38:49.011Z,29.55
2022-11-12T21:41:21.213Z,27.20
2022-11-12T21:43:48.915Z,26.63
2022-11-12T21:46:17.815Z,28.85
2022-11-12T21:48:46.214Z,25.38
2022-11-12T21:51:17.011Z,38.05
2022-11-12T21:53:44.967Z,29.05
2022-11-12T21:56:17.584Z,24.27
2022-11-12T21:58:45.192Z,21.30
2022-11-12T22:01:13.693Z,28.15
2022-11-12T22:03:40.722Z,28.17
2022-11-12T22:06:07.928Z,28.08
2022-11-12T22:08:35.112Z,29.85
2022-11-12T22:11:14.310Z,33.80
2022-11-12T22:13:42.132Z,38.17
2022-11-12T22:16:18.421Z,25.08
2022-11-12T22:18:47.248Z,32.55
2022-11-12T22:21:19.789Z,28.67
2022-11-12T22:23:47.150Z,28.55
2022-11-12T22:26:16.695Z,28.17
2022-11-12T22:28:44.043Z,27.58
2022-11-12T22:31:16.880Z,24.30
2022-11-12T22:33:44.003Z,24.65
2022-11-12T22:36:14.344Z,43.83
2022-11-12T22:38:44.000Z,33.67
2022-11-12T22:41:16.939Z,29.67
2022-11-12T22:43:49.131Z,31.73
2022-11-12T22:46:36.654Z,32.15
2022-11-12T22:49:04.722Z,37.38
2022-11-12T22:51:33.353Z,34.42
2022-11-12T22:54:05.903Z,33.83
2022-11-12T22:56:35.683Z,26.77
2022-11-12T22:59:04.841Z,25.00
2022-11-12T23:01:34.561Z,25.90
2022-11-12T23:04:03.943Z,25.50
2022-11-12T23:06:31.660Z,25.35
2022-11-12T23:08:59.495Z,22.13
2022-11-12T23:11:27.279Z,23.27
2022-11-12T23:13:55.152Z,35.78
2022-11-12T23:16:30.766Z,27.73
2022-11-12T23:18:58.310Z,23.15
2022-11-12T23:21:28.254Z,28.30
2022-11-12T23:23:57.982Z,32.50
2022-11-12T23:26:27.512Z,19.50
2022-11-12T23:28:54.423Z,26.85
2022-11-12T23:31:24.431Z,30.75
2022-11-12T23:33:53.653Z,23.50
2022-11-12T23:36:21.728Z,27.77
2022-11-12T23:38:48.870Z,19.20
2022-11-12T23:41:18.894Z,27.30
2022-11-12T23:43:45.788Z,18.30
2022-11-12T23:46:15.639Z,23.85
2022-11-12T23:48:44.757Z,26.88
2022-11-12T23:51:17.548Z,26.30
2022-11-12T23:53:44.880Z,19.88
2022-11-12T23:56:14.352Z,25.58
2022-11-12T23:58:42.294Z,20.48
